Time;durP1;ratioP1;P1;durP2;ratioP2;P2;SDS_P1;SDS_P2;PMS_P1;PMS_P2;Temp;Humidity;BMP_temperature;BMP_pressure;BME280_temperature;BME280_humidity;BME280_pressure;Samples;Min_cycle;Max_cycle;Signal;HPM_P1;HPM_P2
2023/09/17 00:00:48;;;;;;;6.68;3.20;;;19.00;82.10;;;;;;4991517;28;20157;-85
2023/09/17 00:03:23;;;;;;;4.45;3.25;;;19.00;81.90;;;;;;4981002;28;20045;-85
2023/09/17 00:06:09;;;;;;;3.67;2.60;;;19.00;81.90;;;;;;4976369;28;20443;-85
2023/09/17 00:09:10;;;;;;;4.15;2.60;;;19.00;81.80;;;;;;4990164;28;20049;-85
2023/09/17 00:12:14;;;;;;;4.78;3.38;;;19.00;81.70;;;;;;5015307;28;20132;-86
2023/09/17 00:15:36;;;;;;;3.85;2.80;;;19.00;81.50;;;;;;5029895;28;20072;-84
2023/09/17 00:18:19;;;;;;;4.60;3.17;;;19.00;81.40;;;;;;4904437;29;20062;-86
2023/09/17 00:20:52;;;;;;;4.20;2.75;;;19.00;81.40;;;;;;4917851;28;20472;-86
2023/09/17 00:24:10;;;;;;;4.25;2.55;;;18.90;81.20;;;;;;4974080;28;20057;-85
2023/09/17 00:26:37;;;;;;;5.35;2.65;;;19.00;81.10;;;;;;4972455;28;20547;-85
2023/09/17 00:29:19;;;;;;;;;;;19.00;81.20;;;;;;4972833;28;20039;-84
2023/09/17 00:32:04;;;;;;;5.30;3.38;;;18.90;81.20;;;;;;4988725;28;19976;-85
2023/09/17 00:34:31;;;;;;;4.25;2.72;;;19.00;80.90;;;;;;4964234;28;20049;-85
2023/09/17 00:37:00;;;;;;;3.92;2.67;;;18.90;80.90;;;;;;4960296;28;20524;-86
2023/09/17 00:40:00;;;;;;;4.65;2.17;;;18.90;80.80;;;;;;4984916;28;20077;-85
2023/09/17 00:42:56;;;;;;;4.50;2.72;;;19.00;80.60;;;;;;4987866;28;20048;-86
2023/09/17 00:45:23;;;;;;;4.03;1.85;;;18.90;80.60;;;;;;5001262;28;20111;-86
2023/09/17 00:48:28;;;;;;;4.57;2.10;;;18.90;80.80;;;;;;4991234;28;20049;-86
2023/09/17 00:50:56;;;;;;;4.00;2.60;;;18.90;80.70;;;;;;5017862;28;20521;-86
2023/09/17 00:54:02;;;;;;;3.35;2.10;;;18.80;81.00;;;;;;5044611;28;20127;-86
2023/09/17 00:56:33;;;;;;;3.65;2.72;;;18.70;81.10;;;;;;5061512;28;20052;-86
2023/09/17 00:59:00;;;;;;;4.82;2.85;;;18.60;81.40;;;;;;5030888;28;20522;-86
2023/09/17 01:01:29;;;;;;;4.88;3.33;;;18.50;81.40;;;;;;5017039;28;20099;-86
2023/09/17 01:04:01;;;;;;;4.30;3.20;;;18.50;81.70;;;;;;5008689;28;20500;-86
2023/09/17 01:07:16;;;;;;;3.90;2.77;;;18.50;81.80;;;;;;5023428;28;20046;-86
2023/09/17 01:09:47;;;;;;;3.85;2.60;;;18.40;82.00;;;;;;5043670;28;20514;-86
2023/09/17 01:12:26;;;;;;;4.82;3.10;;;18.30;82.20;;;;;;5020408;28;20042;-86
2023/09/17 01:15:17;;;;;;;5.53;3.60;;;18.30;82.30;;;;;;5036037;28;20053;-86
2023/09/17 01:18:12;;;;;;;5.20;4.00;;;18.30;82.30;;;;;;5020190;28;20045;-86
2023/09/17 01:25:33;;;;;;;6.05;4.28;;;18.20;82.30;;;;;;5048690;28;20055;-86
2023/09/17 01:28:07;;;;;;;4.60;3.33;;;18.20;82.40;;;;;;5024840;28;20072;-86
2023/09/17 01:34:56;;;;;;;5.55;4.10;;;18.00;82.80;;;;;;5054352;28;20052;-86
2023/09/17 01:37:59;;;;;;;5.10;4.05;;;17.90;83.10;;;;;;5020780;28;20052;-85
2023/09/17 01:40:27;;;;;;;6.65;4.97;;;17.80;83.50;;;;;;5030139;28;20446;-86
2023/09/17 01:42:57;;;;;;;5.93;4.38;;;17.70;84.00;;;;;;5040362;28;20442;-86
2023/09/17 01:45:26;;;;;;;7.00;4.88;;;17.60;84.30;;;;;;5054746;28;20040;-85
2023/09/17 01:48:02;;;;;;;6.38;5.10;;;17.50;84.60;;;;;;5021749;28;20418;-85
2023/09/17 01:50:40;;;;;;;6.15;4.97;;;17.40;84.90;;;;;;5058699;28;20075;-85
2023/09/17 01:53:15;;;;;;;7.72;5.45;;;17.30;85.30;;;;;;5028382;28;20446;-85
2023/09/17 01:55:42;;;;;;;6.97;5.25;;;17.20;85.50;;;;;;5034418;28;20072;-85
2023/09/17 01:58:10;;;;;;;7.35;4.57;;;17.20;85.80;;;;;;5015755;28;20080;-84
2023/09/17 02:00:38;;;;;;;6.35;4.38;;;17.10;86.00;;;;;;5027674;28;20525;-85
2023/09/17 02:03:25;;;;;;;7.57;5.38;;;17.10;86.20;;;;;;5034580;28;20411;-84
2023/09/17 02:05:55;;;;;;;6.60;4.88;;;17.10;86.30;;;;;;5027988;28;20041;-84
2023/09/17 02:08:26;;;;;;;6.18;4.55;;;17.10;86.40;;;;;;5033686;28;20037;-85
2023/09/17 02:10:56;;;;;;;6.07;4.80;;;17.00;86.50;;;;;;5027954;28;20475;-85
2023/09/17 02:13:28;;;;;;;5.85;4.22;;;17.00;86.60;;;;;;5040014;28;20098;-85
2023/09/17 02:15:59;;;;;;;7.50;4.82;;;17.00;86.60;;;;;;5048695;28;20406;-85
2023/09/17 02:18:26;;;;;;;7.22;5.43;;;17.00;86.70;;;;;;5011004;28;20045;-85
2023/09/17 02:20:56;;;;;;;5.55;4.40;;;16.90;86.80;;;;;;5052489;28;20494;-85
2023/09/17 02:23:25;;;;;;;5.40;4.68;;;16.90;86.90;;;;;;5040523;28;20079;-85
2023/09/17 02:25:57;;;;;;;7.90;4.53;;;16.90;87.00;;;;;;5025193;28;20052;-85
2023/09/17 02:28:30;;;;;;;6.43;4.53;;;17.00;87.10;;;;;;5036080;28;20072;-85
2023/09/17 02:30:59;;;;;;;6.90;4.75;;;17.00;87.10;;;;;;5032673;28;20483;-85
2023/09/17 02:33:26;;;;;;;8.85;5.22;;;17.00;87.20;;;;;;5046277;28;20100;-86
2023/09/17 02:36:03;;;;;;;7.47;5.03;;;17.00;87.30;;;;;;5024840;28;20586;-85
2023/09/17 02:38:33;;;;;;;6.97;4.75;;;17.00;87.40;;;;;;5039960;28;20521;-86
2023/09/17 02:41:14;;;;;;;5.72;4.47;;;17.00;87.40;;;;;;5023781;28;20053;-86
2023/09/17 02:43:57;;;;;;;6.30;5.00;;;17.00;87.40;;;;;;5043427;28;20061;-86
2023/09/17 02:46:27;;;;;;;7.32;5.22;;;17.00;87.50;;;;;;5043887;28;20045;-86
2023/09/17 02:48:58;;;;;;;6.10;5.00;;;17.00;87.60;;;;;;5048387;28;20152;-87
2023/09/17 02:51:50;;;;;;;6.85;5.15;;;16.90;87.60;;;;;;5005356;28;20041;-86
2023/09/17 02:54:29;;;;;;;7.73;4.67;;;17.00;87.60;;;;;;5014312;28;20052;-86
2023/09/17 02:57:29;;;;;;;5.85;4.47;;;16.90;87.70;;;;;;5004948;28;20132;-86
2023/09/17 03:00:13;;;;;;;5.43;4.00;;;16.90;87.70;;;;;;5037119;28;20140;-86
2023/09/17 03:02:47;;;;;;;6.18;4.20;;;16.90;87.70;;;;;;5017953;28;20045;-86
2023/09/17 03:05:25;;;;;;;6.07;4.35;;;16.90;87.70;;;;;;5039917;28;20076;-86
2023/09/17 03:07:56;;;;;;;6.15;4.10;;;16.80;87.70;;;;;;5030434;28;20052;-85
2023/09/17 03:10:24;;;;;;;5.32;3.72;;;16.80;88.00;;;;;;5052510;28;20048;-84
2023/09/17 03:13:13;;;;;;;5.28;4.03;;;16.70;88.00;;;;;;5045780;28;20518;-85
2023/09/17 03:15:46;;;;;;;6.45;4.07;;;16.70;88.10;;;;;;5019734;28;20045;-85
2023/09/17 03:18:33;;;;;;;5.38;3.20;;;16.70;88.20;;;;;;5034360;28;20045;-85
2023/09/17 03:21:06;;;;;;;5.47;3.50;;;16.70;88.30;;;;;;5010769;28;20045;-85
2023/09/17 03:23:37;;;;;;;7.50;3.97;;;16.60;88.50;;;;;;5003339;28;20473;-84
2023/09/17 03:26:09;;;;;;;5.75;3.33;;;16.60;88.60;;;;;;5041975;28;20075;-85
2023/09/17 03:28:36;;;;;;;5.07;3.40;;;16.60;88.80;;;;;;5036222;28;20128;-84
2023/09/17 03:31:05;;;;;;;5.07;4.13;;;16.50;88.80;;;;;;5022981;28;20569;-84
2023/09/17 03:33:32;;;;;;;5.35;3.55;;;16.50;88.90;;;;;;5029066;28;20147;-84
2023/09/17 03:36:01;;;;;;;6.50;3.40;;;16.50;89.00;;;;;;5048265;28;20059;-84
2023/09/17 03:38:36;;;;;;;6.90;4.53;;;16.50;89.10;;;;;;5026151;28;20449;-84
2023/09/17 03:41:16;;;;;;;4.95;3.78;;;16.50;89.20;;;;;;5010310;28;20111;-87
2023/09/17 03:43:46;;;;;;;6.13;3.90;;;16.50;89.40;;;;;;5032856;28;20049;-87
2023/09/17 03:46:16;;;;;;;5.55;3.92;;;16.50;89.50;;;;;;5033237;28;20103;-87
2023/09/17 03:48:51;;;;;;;4.93;3.70;;;16.50;89.60;;;;;;5029221;28;20041;-87
2023/09/17 03:51:19;;;;;;;5.18;3.40;;;16.50;89.60;;;;;;5020727;28;20056;-87
2023/09/17 03:53:52;;;;;;;5.38;4.00;;;16.50;89.60;;;;;;5041132;28;20049;-87
2023/09/17 03:56:21;;;;;;;5.90;3.88;;;16.50;89.70;;;;;;5035121;28;20052;-86
2023/09/17 03:58:48;;;;;;;6.10;3.08;;;16.50;89.70;;;;;;5021677;28;20041;-87
2023/09/17 04:01:18;;;;;;;5.32;4.15;;;16.50;89.70;;;;;;5036049;28;20068;-86
2023/09/17 04:03:46;;;;;;;4.53;3.40;;;16.60;89.90;;;;;;5023709;28;20041;-87
2023/09/17 04:06:15;;;;;;;4.57;3.20;;;16.60;89.90;;;;;;5032159;28;20045;-88
2023/09/17 04:08:42;;;;;;;6.07;3.63;;;16.60;90.00;;;;;;5019086;28;20133;-88
2023/09/17 04:11:15;;;;;;;7.85;4.70;;;16.60;90.00;;;;;;5032882;28;20095;-86
2023/09/17 04:13:46;;;;;;;6.20;4.15;;;16.50;90.10;;;;;;5018424;28;20041;-87
2023/09/17 04:16:16;;;;;;;6.70;4.22;;;16.50;90.20;;;;;;5020161;28;20049;-86
2023/09/17 04:18:43;;;;;;;4.53;3.25;;;16.40;90.30;;;;;;5035424;28;20122;-86
2023/09/17 04:21:10;;;;;;;6.30;4.22;;;16.30;90.50;;;;;;5015501;28;20057;-86
2023/09/17 04:23:37;;;;;;;5.32;4.05;;;16.30;90.60;;;;;;5032542;28;20041;-86
2023/09/17 04:26:05;;;;;;;6.20;4.72;;;16.20;90.70;;;;;;5031678;28;20072;-86
2023/09/17 04:28:32;;;;;;;7.43;4.15;;;16.20;90.90;;;;;;5020532;28;20560;-86
2023/09/17 04:30:59;;;;;;;6.97;4.57;;;16.20;91.00;;;;;;5027329;28;20045;-86
2023/09/17 04:33:27;;;;;;;6.15;4.47;;;16.20;91.10;;;;;;5045537;28;20051;-86
2023/09/17 04:35:56;;;;;;;8.80;4.53;;;16.20;91.10;;;;;;5027035;28;20045;-86
2023/09/17 04:38:23;;;;;;;6.57;4.40;;;16.20;91.20;;;;;;5011312;28;20482;-86
2023/09/17 04:40:51;;;;;;;6.55;4.85;;;16.20;91.30;;;;;;5030694;28;20560;-85
2023/09/17 04:43:20;;;;;;;6.30;4.65;;;16.20;91.30;;;;;;5019632;28;20049;-86
2023/09/17 04:45:48;;;;;;;6.35;4.30;;;16.20;91.40;;;;;;5019161;28;20049;-86
2023/09/17 04:48:26;;;;;;;6.50;4.93;;;16.20;91.40;;;;;;5016817;28;20499;-85
2023/09/17 04:50:53;;;;;;;7.60;5.22;;;16.20;91.50;;;;;;5031687;28;20117;-86
2023/09/17 04:53:23;;;;;;;6.93;4.75;;;16.20;91.50;;;;;;5026832;28;20074;-86
2023/09/17 04:55:50;;;;;;;7.28;5.18;;;16.20;91.60;;;;;;5042174;28;20131;-85
2023/09/17 04:58:22;;;;;;;8.10;4.55;;;16.20;91.60;;;;;;5045774;28;20053;-85
2023/09/17 05:00:49;;;;;;;7.47;4.88;;;16.20;91.70;;;;;;5014916;28;20049;-85
2023/09/17 05:03:16;;;;;;;7.28;5.20;;;16.20;91.70;;;;;;5018625;28;20494;-85
2023/09/17 05:05:44;;;;;;;7.10;4.90;;;16.20;91.80;;;;;;5016526;28;20041;-85
2023/09/17 05:08:13;;;;;;;7.60;4.68;;;16.20;91.80;;;;;;5030114;28;20049;-85
2023/09/17 05:10:40;;;;;;;7.05;4.60;;;16.30;91.80;;;;;;5002010;28;20495;-85
2023/09/17 05:13:10;;;;;;;6.57;4.63;;;16.30;91.90;;;;;;5028673;28;20049;-85
2023/09/17 05:15:38;;;;;;;8.32;5.85;;;16.20;92.00;;;;;;5014735;28;20079;-85
2023/09/17 05:18:09;;;;;;;8.10;5.00;;;16.20;92.00;;;;;;5019838;28;20041;-84
2023/09/17 05:20:43;;;;;;;7.60;5.28;;;16.20;92.10;;;;;;5020287;28;20103;-85
2023/09/17 05:23:11;;;;;;;7.80;5.55;;;16.20;92.20;;;;;;5031318;28;20046;-85
2023/09/17 05:25:39;;;;;;;8.50;5.32;;;16.20;92.20;;;;;;5034905;28;20407;-84
2023/09/17 05:28:07;;;;;;;9.10;5.68;;;16.20;92.30;;;;;;5038628;28;20045;-85
2023/09/17 05:30:36;;;;;;;8.77;5.22;;;16.20;92.30;;;;;;5029973;28;20045;-85
2023/09/17 05:33:06;;;;;;;10.00;6.45;;;16.20;92.40;;;;;;5030997;28;20045;-84
2023/09/17 05:35:36;;;;;;;8.50;5.50;;;16.20;92.50;;;;;;5006239;28;20040;-84
2023/09/17 05:38:06;;;;;;;6.00;4.70;;;16.20;92.60;;;;;;5009874;28;20130;-85
2023/09/17 05:40:34;;;;;;;8.82;5.40;;;16.20;92.60;;;;;;5012544;28;20063;-84
2023/09/17 05:43:01;;;;;;;9.07;5.93;;;16.20;92.60;;;;;;5034768;28;20045;-85
2023/09/17 05:45:32;;;;;;;7.65;5.28;;;16.20;92.70;;;;;;5004297;28;20042;-85
2023/09/17 05:48:00;;;;;;;7.55;5.75;;;16.20;92.70;;;;;;5002474;28;20450;-85
2023/09/17 05:50:28;;;;;;;7.82;5.45;;;16.20;92.80;;;;;;5038459;28;20069;-84
2023/09/17 05:52:55;;;;;;;7.30;5.38;;;16.20;92.90;;;;;;5036797;28;20045;-86
2023/09/17 05:55:25;;;;;;;8.15;5.68;;;16.20;92.90;;;;;;5045455;28;20096;-84
2023/09/17 05:57:54;;;;;;;8.13;4.78;;;16.20;93.00;;;;;;5004174;28;20100;-87
2023/09/17 06:00:22;;;;;;;8.85;5.43;;;16.20;93.00;;;;;;5030833;28;20057;-87
2023/09/17 06:02:49;;;;;;;9.52;5.25;;;16.20;93.00;;;;;;5037452;28;20449;-86
2023/09/17 06:05:17;;;;;;;6.85;4.88;;;16.30;93.10;;;;;;5005179;28;20046;-86
2023/09/17 06:07:44;;;;;;;7.88;5.25;;;16.20;93.40;;;;;;5033772;28;20569;-87
2023/09/17 06:10:12;;;;;;;8.02;5.40;;;16.20;93.20;;;;;;5038133;28;20509;-86
2023/09/17 06:12:39;;;;;;;7.30;5.28;;;16.20;93.30;;;;;;5004638;28;20136;-87
2023/09/17 06:15:08;;;;;;;8.18;5.82;;;16.20;93.30;;;;;;5051569;28;20056;-86
2023/09/17 06:17:35;;;;;;;7.75;5.03;;;16.20;93.40;;;;;;5037780;28;20041;-86
2023/09/17 06:20:03;;;;;;;8.85;5.47;;;16.20;93.40;;;;;;5005236;28;20049;-85
2023/09/17 06:22:30;;;;;;;8.15;5.82;;;16.20;93.40;;;;;;5034386;28;20411;-86
2023/09/17 06:24:58;;;;;;;5.88;4.47;;;16.20;93.40;;;;;;5025953;28;20081;-85
2023/09/17 06:27:25;;;;;;;7.25;4.20;;;16.20;93.50;;;;;;4998628;28;20049;-85
2023/09/17 06:29:52;;;;;;;6.03;3.97;;;16.30;93.50;;;;;;5030459;28;20044;-85
2023/09/17 06:32:22;;;;;;;5.85;4.03;;;16.30;93.50;;;;;;5033836;28;20049;-85
2023/09/17 06:34:50;;;;;;;6.30;4.13;;;16.30;93.50;;;;;;5017600;28;20092;-86
2023/09/17 06:37:17;;;;;;;5.78;3.65;;;16.30;93.50;;;;;;5031361;28;20045;-85
2023/09/17 06:39:47;;;;;;;6.40;3.80;;;16.30;93.50;;;;;;5037714;28;20049;-84
2023/09/17 06:42:14;;;;;;;5.93;3.70;;;16.30;93.50;;;;;;5026170;28;20057;-85
2023/09/17 06:44:41;;;;;;;7.57;3.97;;;16.30;93.50;;;;;;5047551;28;20045;-86
2023/09/17 06:47:08;;;;;;;4.93;3.55;;;16.30;93.60;;;;;;5022902;28;20056;-86
2023/09/17 06:49:36;;;;;;;5.20;3.42;;;16.30;93.60;;;;;;5019882;28;20045;-86
2023/09/17 06:52:03;;;;;;;6.80;3.60;;;16.30;93.60;;;;;;5027250;28;20056;-86
2023/09/17 06:54:30;;;;;;;4.82;3.00;;;16.30;93.60;;;;;;5024491;28;20132;-86
2023/09/17 06:56:58;;;;;;;5.57;3.10;;;16.30;93.60;;;;;;5053236;28;20037;-86
2023/09/17 06:59:25;;;;;;;4.25;2.63;;;16.30;93.50;;;;;;5008669;28;20041;-86
2023/09/17 07:01:52;;;;;;;5.03;2.90;;;16.40;93.50;;;;;;5030582;28;20049;-85
2023/09/17 07:04:19;;;;;;;6.18;3.05;;;16.50;93.50;;;;;;5033110;28;20095;-85
2023/09/17 07:06:47;;;;;;;5.40;3.38;;;16.50;93.40;;;;;;5025926;28;20140;-86
2023/09/17 07:09:17;;;;;;;4.95;3.33;;;16.60;93.40;;;;;;5038653;28;20057;-85
2023/09/17 07:11:44;;;;;;;4.18;2.55;;;16.60;93.40;;;;;;5052249;28;20042;-86
2023/09/17 07:14:12;;;;;;;4.10;2.20;;;16.60;93.40;;;;;;5018287;28;20041;-85
2023/09/17 07:16:39;;;;;;;3.90;2.33;;;16.60;93.40;;;;;;5034624;28;20122;-86
2023/09/17 07:19:06;;;;;;;4.40;2.03;;;16.70;93.40;;;;;;5008743;28;20055;-86
2023/09/17 07:21:34;;;;;;;3.50;2.17;;;16.70;93.40;;;;;;5022316;28;20099;-85
2023/09/17 07:24:01;;;;;;;3.92;2.40;;;16.80;93.30;;;;;;5046384;28;20049;-86
2023/09/17 07:26:28;;;;;;;3.15;1.75;;;16.80;93.30;;;;;;5028938;28;20053;-86
2023/09/17 07:28:56;;;;;;;5.05;2.45;;;16.80;93.30;;;;;;5019449;28;20052;-86
2023/09/17 07:31:23;;;;;;;3.90;2.22;;;16.90;93.30;;;;;;5031705;28;20140;-86
2023/09/17 07:33:51;;;;;;;4.75;2.63;;;16.90;93.20;;;;;;5060465;28;20108;-86
2023/09/17 07:36:18;;;;;;;5.07;3.17;;;16.90;93.10;;;;;;5045965;28;20473;-86
2023/09/17 07:38:46;;;;;;;3.88;2.75;;;16.90;93.20;;;;;;5036754;28;20064;-85
2023/09/17 07:41:13;;;;;;;4.55;2.70;;;16.80;93.20;;;;;;5048286;28;20053;-85
2023/09/17 07:43:40;;;;;;;3.22;1.92;;;16.80;93.20;;;;;;5036456;28;20045;-86
2023/09/17 07:46:11;;;;;;;4.55;2.60;;;16.80;93.30;;;;;;5036352;28;20132;-85
2023/09/17 07:48:41;;;;;;;4.30;2.13;;;16.80;93.30;;;;;;5009573;28;20064;-86
2023/09/17 07:51:08;;;;;;;4.53;3.13;;;16.80;93.30;;;;;;5041201;28;20409;-86
2023/09/17 07:53:35;;;;;;;4.10;2.55;;;16.80;93.30;;;;;;5044144;28;20041;-86
2023/09/17 07:56:03;;;;;;;5.30;2.92;;;16.80;93.30;;;;;;5032802;28;20040;-86
2023/09/17 07:58:31;;;;;;;6.22;3.70;;;16.80;93.30;;;;;;5032047;28;20423;-86
2023/09/17 08:00:58;;;;;;;4.43;3.17;;;16.90;93.20;;;;;;4999740;28;20041;-85
2023/09/17 08:03:26;;;;;;;5.20;3.10;;;16.90;93.10;;;;;;5045197;28;20087;-85
2023/09/17 08:05:55;;;;;;;4.88;3.15;;;17.00;93.10;;;;;;5023266;28;20140;-86
2023/09/17 08:08:23;;;;;;;6.18;3.63;;;17.00;93.10;;;;;;4999501;28;20046;-85
2023/09/17 08:10:55;;;;;;;4.57;2.72;;;17.00;93.10;;;;;;5026052;28;20040;-85
2023/09/17 08:13:25;;;;;;;6.75;3.90;;;17.00;93.10;;;;;;5021888;28;20041;-85
2023/09/17 08:15:52;;;;;;;6.72;3.45;;;17.10;93.00;;;;;;5035251;28;20068;-85
2023/09/17 08:18:20;;;;;;;5.75;3.85;;;17.10;93.00;;;;;;5031352;28;20033;-85
2023/09/17 08:20:47;;;;;;;5.95;3.42;;;17.20;93.00;;;;;;5043177;28;20063;-86
2023/09/17 08:23:15;;;;;;;5.85;3.40;;;17.20;93.00;;;;;;5050984;28;20056;-86
2023/09/17 08:25:43;;;;;;;7.82;4.15;;;17.20;93.00;;;;;;5041194;28;20049;-86
2023/09/17 08:28:13;;;;;;;6.18;3.60;;;17.20;93.00;;;;;;5033692;28;20564;-85
2023/09/17 08:30:40;;;;;;;7.20;4.57;;;17.20;93.00;;;;;;5031473;28;20045;-86
2023/09/17 08:33:15;;;;;;;6.47;4.38;;;17.20;93.00;;;;;;5048221;28;20065;-85
2023/09/17 08:35:43;;;;;;;7.20;4.53;;;17.20;93.00;;;;;;5038662;28;20090;-85
2023/09/17 08:38:10;;;;;;;5.70;4.05;;;17.20;93.00;;;;;;5042631;28;20045;-85
2023/09/17 08:40:46;;;;;;;7.43;4.45;;;17.20;93.00;;;;;;5017901;28;20041;-88
2023/09/17 08:43:20;;;;;;;8.20;5.70;;;17.10;93.10;;;;;;5022684;28;20052;-84
2023/09/17 08:45:51;;;;;;;8.50;5.38;;;17.10;93.10;;;;;;5011626;28;20060;-87
2023/09/17 08:48:22;;;;;;;7.97;5.25;;;17.00;93.20;;;;;;5027317;28;20049;-85
2023/09/17 08:50:51;;;;;;;7.13;4.70;;;17.00;93.20;;;;;;5021985;28;20043;-86
2023/09/17 08:53:45;;;;;;;7.13;5.00;;;17.00;93.30;;;;;;5025311;28;20114;-84
2023/09/17 08:56:16;;;;;;;8.77;5.50;;;17.00;93.20;;;;;;5036106;28;20077;-84
2023/09/17 08:58:55;;;;;;;6.90;4.80;;;17.00;93.30;;;;;;5031696;28;20128;-84
2023/09/17 09:05:25;;;;;;;7.25;4.93;;;17.10;93.20;;;;;;5035477;28;20045;-84
2023/09/17 09:07:52;;;;;;;6.97;4.45;;;17.10;93.20;;;;;;5021342;28;20053;-85
2023/09/17 09:10:31;;;;;;;7.72;5.30;;;17.10;93.20;;;;;;5031436;28;20045;-85
2023/09/17 09:13:00;;;;;;;9.45;6.05;;;17.20;93.20;;;;;;5045160;28;20077;-86
2023/09/17 09:15:36;;;;;;;7.85;5.70;;;17.30;93.10;;;;;;5039379;28;20380;-87
2023/09/17 09:18:15;;;;;;;8.45;5.07;;;17.40;93.00;;;;;;5054326;28;20406;-86
2023/09/17 09:20:45;;;;;;;8.73;5.85;;;17.60;93.00;;;;;;5029241;28;20048;-85
2023/09/17 09:23:13;;;;;;;8.48;4.88;;;17.60;92.90;;;;;;5044715;28;20073;-86
2023/09/17 09:25:41;;;;;;;8.20;5.50;;;17.70;92.90;;;;;;5028908;28;20072;-87
2023/09/17 09:28:11;;;;;;;7.30;4.88;;;17.70;92.90;;;;;;5051586;28;20056;-85
2023/09/17 09:30:59;;;;;;;7.60;5.45;;;17.70;92.90;;;;;;5008217;28;20041;-85
2023/09/17 09:33:26;;;;;;;7.28;5.63;;;17.80;92.90;;;;;;5024405;28;20046;-83
2023/09/17 09:35:57;;;;;;;8.75;6.03;;;17.70;92.90;;;;;;5050237;28;20503;-84
2023/09/17 09:38:24;;;;;;;6.90;4.75;;;17.80;92.90;;;;;;4988092;28;20045;-83
2023/09/17 09:40:51;;;;;;;8.20;4.82;;;17.90;92.90;;;;;;5023690;28;20140;-83
2023/09/17 09:43:30;;;;;;;10.45;6.35;;;17.90;92.80;;;;;;5001669;28;20044;-83
2023/09/17 09:46:06;;;;;;;8.80;5.70;;;18.00;92.80;;;;;;5041209;28;20116;-86
2023/09/17 09:48:38;;;;;;;6.88;5.10;;;18.00;92.80;;;;;;5004008;28;20049;-85
2023/09/17 09:51:06;;;;;;;7.72;5.47;;;18.00;92.80;;;;;;5031166;28;20071;-86
2023/09/17 09:53:33;;;;;;;9.32;6.22;;;18.10;92.80;;;;;;5034828;28;20045;-84
2023/09/17 09:56:03;;;;;;;7.65;5.00;;;18.20;92.80;;;;;;5015806;28;20041;-84
2023/09/17 09:58:30;;;;;;;7.97;5.63;;;18.20;92.70;;;;;;5035234;28;20111;-86
2023/09/17 10:01:02;;;;;;;8.52;5.35;;;18.20;92.70;;;;;;5027306;28;20069;-85
2023/09/17 10:03:33;;;;;;;9.15;6.40;;;18.40;92.70;;;;;;5032010;28;20492;-88
2023/09/17 10:06:07;;;;;;;7.38;5.07;;;18.40;92.60;;;;;;5029995;28;20045;-84
2023/09/17 10:08:37;;;;;;;8.88;5.35;;;18.40;92.60;;;;;;5040498;28;20085;-84
2023/09/17 10:11:06;;;;;;;8.27;5.50;;;18.50;92.60;;;;;;5009679;28;20095;-89
2023/09/17 10:13:34;;;;;;;7.25;5.28;;;18.50;92.60;;;;;;5032371;28;20501;-87
2023/09/17 10:16:02;;;;;;;8.30;5.15;;;18.60;92.60;;;;;;5045451;28;20411;-87
2023/09/17 10:18:42;;;;;;;10.18;6.90;;;18.60;92.60;;;;;;5040447;28;20446;-87
2023/09/17 10:21:13;;;;;;;;;;;18.60;92.80;;;;;;5038196;28;20045;-85
2023/09/17 10:23:51;;;;;;;9.73;6.95;;;18.70;92.50;;;;;;5033898;28;19921;-88
2023/09/17 10:26:23;;;;;;;9.10;6.22;;;18.70;92.50;;;;;;5044434;28;20428;-89
2023/09/17 10:28:57;;;;;;;7.93;5.45;;;18.80;92.50;;;;;;5036044;28;20069;-87
2023/09/17 10:31:24;;;;;;;8.60;6.03;;;18.80;92.40;;;;;;5034858;28;20042;-89
2023/09/17 10:33:53;;;;;;;7.45;4.78;;;18.90;92.40;;;;;;5029895;28;20050;-87
2023/09/17 10:36:22;;;;;;;9.13;6.65;;;19.00;92.30;;;;;;5034266;28;20045;-85
2023/09/17 10:38:52;;;;;;;10.52;6.38;;;19.20;92.20;;;;;;5036793;28;20041;-93
2023/09/17 10:41:22;;;;;;;9.80;6.75;;;19.20;92.10;;;;;;5055459;28;20048;-93
2023/09/17 10:43:52;;;;;;;8.57;6.03;;;19.30;92.10;;;;;;5027243;28;20053;-89
2023/09/17 10:46:22;;;;;;;8.02;5.70;;;19.40;92.10;;;;;;5026685;28;20049;-88
2023/09/17 10:48:50;;;;;;;10.07;7.10;;;19.60;92.10;;;;;;5063511;28;20049;-83
2023/09/17 10:56:20;;;;;;;8.23;6.07;;;19.70;91.90;;;;;;5041752;28;20514;-93
2023/09/17 10:58:53;;;;;;;11.40;6.85;;;19.60;91.90;;;;;;5024336;28;20064;-94
2023/09/17 11:01:29;;;;;;;6.70;4.68;;;19.60;92.00;;;;;;5031871;28;20092;-93
2023/09/17 11:04:15;;;;;;;9.27;6.88;;;19.60;92.10;;;;;;5034978;28;20056;-88
2023/09/17 11:06:47;;;;;;;9.80;5.60;;;19.70;92.10;;;;;;5034548;28;20541;-91
2023/09/17 11:09:15;;;;;;;10.25;7.05;;;19.70;92.10;;;;;;5036052;28;20049;-92
2023/09/17 11:11:43;;;;;;;9.48;6.68;;;19.70;92.10;;;;;;5039994;28;20073;-90
2023/09/17 11:14:12;;;;;;;13.00;7.28;;;19.60;92.20;;;;;;5004852;28;20045;-84
2023/09/17 11:16:39;;;;;;;10.55;6.55;;;19.70;92.20;;;;;;5046090;28;20126;-83
2023/09/17 11:19:16;;;;;;;10.90;6.35;;;19.70;92.20;;;;;;5060511;28;20033;-92
2023/09/17 11:21:47;;;;;;;8.60;6.45;;;19.80;92.20;;;;;;5072925;28;20050;-91
2023/09/17 11:24:19;;;;;;;8.80;6.63;;;20.00;92.10;;;;;;5045845;28;20126;-90
2023/09/17 11:26:49;;;;;;;8.60;5.65;;;20.10;91.90;;;;;;5067585;28;20338;-94
2023/09/17 11:29:41;;;;;;;9.13;6.10;;;20.20;91.90;;;;;;5038545;28;20046;-92
2023/09/17 11:32:09;;;;;;;10.88;6.43;;;20.40;91.80;;;;;;5038057;28;20045;-92
2023/09/17 11:34:38;;;;;;;9.63;6.63;;;20.50;91.70;;;;;;5046945;28;20044;-92
2023/09/17 11:37:08;;;;;;;10.35;6.63;;;20.60;91.60;;;;;;5070918;28;20086;-84
2023/09/17 11:39:36;;;;;;;9.35;5.78;;;20.70;91.60;;;;;;5046896;28;20055;-84
2023/09/17 11:42:08;;;;;;;11.75;7.60;;;20.70;91.60;;;;;;5016703;28;20515;-81
2023/09/17 11:44:37;;;;;;;9.77;7.05;;;20.70;91.60;;;;;;5046312;28;20084;-82
2023/09/17 11:47:09;;;;;;;10.82;7.53;;;20.80;91.60;;;;;;5025920;28;20095;-84
2023/09/17 11:49:46;;;;;;;;;;;20.70;91.60;;;;;;5036556;28;20148;-89
2023/09/17 11:52:14;;;;;;;11.80;6.75;;;20.70;91.70;;;;;;5055070;28;19956;-89
2023/09/17 11:55:12;;;;;;;13.18;7.80;;;20.60;91.90;;;;;;5023333;28;20044;-89
2023/09/17 11:57:43;;;;;;;9.57;6.18;;;20.60;91.90;;;;;;5038646;28;20053;-85
2023/09/17 12:00:11;;;;;;;9.43;5.95;;;20.60;91.90;;;;;;5021397;28;20136;-85
2023/09/17 12:02:44;;;;;;;8.05;5.35;;;20.60;91.90;;;;;;5025359;28;20088;-86
2023/09/17 12:05:13;;;;;;;10.30;7.03;;;20.60;91.90;;;;;;5036045;28;20049;-93
2023/09/17 12:07:46;;;;;;;10.02;5.93;;;20.60;91.90;;;;;;5037025;28;20080;-90
2023/09/17 12:10:33;;;;;;;8.57;5.83;;;20.60;91.90;;;;;;5046955;28;20128;-88
2023/09/17 12:13:06;;;;;;;9.17;5.73;;;20.70;92.00;;;;;;5027977;28;20056;-87
2023/09/17 12:15:33;;;;;;;10.15;6.03;;;20.60;92.00;;;;;;5036600;28;20052;-89
2023/09/17 12:18:08;;;;;;;10.70;6.38;;;20.60;92.10;;;;;;5037157;28;20102;-88
2023/09/17 12:20:59;;;;;;;10.65;6.45;;;20.50;92.20;;;;;;5034389;28;20053;-85
2023/09/17 12:29:41;;;;;;;13.55;9.00;;;20.40;92.30;;;;;;5044823;28;20525;-84
2023/09/17 12:32:12;;;;;;;13.23;9.48;;;20.40;92.40;;;;;;5014940;28;20041;-81
2023/09/17 12:34:41;;;;;;;14.90;10.40;;;20.40;92.30;;;;;;5018939;28;20046;-87
2023/09/17 12:37:11;;;;;;;10.38;7.40;;;20.50;92.40;;;;;;5026292;28;20043;-90
2023/09/17 12:39:52;;;;;;;10.32;7.50;;;20.50;92.40;;;;;;5018151;28;20081;-91
2023/09/17 12:42:47;;;;;;;10.17;7.17;;;20.50;92.40;;;;;;5003028;28;20097;-89
2023/09/17 12:45:23;;;;;;;8.57;6.40;;;20.70;92.30;;;;;;5022423;28;20100;-87
2023/09/17 12:47:50;;;;;;;9.80;6.28;;;20.80;92.10;;;;;;5046324;28;20589;-87
2023/09/17 12:50:19;;;;;;;9.00;6.57;;;21.00;92.00;;;;;;5034039;28;20087;-88
2023/09/17 12:52:46;;;;;;;11.82;7.78;;;21.10;91.90;;;;;;5036935;28;20065;-88
2023/09/17 12:55:13;;;;;;;11.10;7.28;;;21.20;91.90;;;;;;5029608;28;20123;-85
2023/09/17 12:57:40;;;;;;;10.85;6.28;;;21.30;91.80;;;;;;5034569;28;20045;-85
2023/09/17 13:00:08;;;;;;;10.30;7.05;;;21.50;91.70;;;;;;5034750;28;20059;-87
2023/09/17 13:02:37;;;;;;;12.20;8.75;;;21.50;91.70;;;;;;5051969;28;20253;-88
2023/09/17 13:05:05;;;;;;;12.82;9.05;;;21.60;91.60;;;;;;5035070;28;20049;-87
2023/09/17 13:07:33;;;;;;;11.57;8.63;;;21.80;91.50;;;;;;5033881;28;20045;-87
2023/09/17 13:10:03;;;;;;;12.93;9.25;;;21.90;91.40;;;;;;5018810;28;20073;-88
2023/09/17 13:12:30;;;;;;;16.40;11.50;;;22.10;91.30;;;;;;5024883;28;20049;-82
2023/09/17 13:14:58;;;;;;;14.52;9.63;;;22.20;91.20;;;;;;5031334;28;20069;-87
2023/09/17 13:17:28;;;;;;;14.65;9.93;;;22.30;91.10;;;;;;5027824;28;20071;-88
2023/09/17 13:19:57;;;;;;;13.85;9.15;;;22.30;91.10;;;;;;5046054;28;20053;-88
2023/09/17 13:22:29;;;;;;;13.57;10.25;;;22.30;91.10;;;;;;5031527;28;20144;-87
2023/09/17 13:24:57;;;;;;;16.23;12.45;;;22.30;91.20;;;;;;5029930;28;20131;-82
2023/09/17 13:27:28;;;;;;;14.57;9.77;;;22.30;91.30;;;;;;5044235;28;20118;-81
2023/09/17 13:30:10;;;;;;;13.85;9.63;;;22.30;91.30;;;;;;5015286;28;20056;-88
2023/09/17 13:32:37;;;;;;;12.68;9.25;;;22.40;91.20;;;;;;5021401;28;20065;-82
2023/09/17 13:35:10;;;;;;;11.20;8.80;;;22.40;91.20;;;;;;5015638;28;20041;-91